createdAt,value
2019-03-04T00:03:05.973Z,11.37
2019-03-04T00:08:14.954Z,11.44
2019-03-04T00:13:25.670Z,10.89
2019-03-04T00:18:24.197Z,12.64
2019-03-04T00:23:34.366Z,14.31
2019-03-04T00:28:36.525Z,10.12
2019-03-04T00:33:36.407Z,10.00
2019-03-04T00:38:50.596Z,9.85
2019-03-04T00:43:53.193Z,11.82
2019-03-04T00:48:55.266Z,11.44
2019-03-04T00:53:55.425Z,11.47
2019-03-04T00:59:00.484Z,10.18
2019-03-04T01:04:03.166Z,9.52
2019-03-04T01:09:00.962Z,10.52
2019-03-04T01:14:11.149Z,12.66
2019-03-04T01:19:09.887Z,7.96
2019-03-04T01:24:20.110Z,9.71
2019-03-04T01:29:20.611Z,9.07
2019-03-04T01:34:21.332Z,7.62
2019-03-04T01:39:20.262Z,10.27
2019-03-04T01:44:29.440Z,9.02
2019-03-04T01:49:29.221Z,10.37
2019-03-04T01:54:40.992Z,10.97
2019-03-04T01:59:43.036Z,9.03
2019-03-04T02:04:47.953Z,8.20
2019-03-04T02:09:48.063Z,9.52
2019-03-04T02:14:49.224Z,9.17
2019-03-04T02:19:50.536Z,8.69
2019-03-04T02:24:51.599Z,11.90
2019-03-04T02:29:52.222Z,8.62
2019-03-04T02:34:51.250Z,15.01
2019-03-04T02:40:00.429Z,11.73
2019-03-04T02:45:22.412Z,12.47
2019-03-04T02:50:16.055Z,10.92
2019-03-04T02:55:22.964Z,8.57
2019-03-04T03:00:34.118Z,8.65
2019-03-04T03:05:42.609Z,7.34
2019-03-04T03:10:43.759Z,7.53
2019-03-04T03:15:49.757Z,7.50
2019-03-04T03:21:02.162Z,7.92
2019-03-04T03:25:58.403Z,7.74
2019-03-04T03:31:10.197Z,7.44
2019-03-04T03:36:00.070Z,7.97
2019-03-04T03:41:02.816Z,8.86
2019-03-04T03:46:14.523Z,8.10
2019-03-04T03:51:17.849Z,7.93
2019-03-04T03:56:09.761Z,7.13
2019-03-04T04:01:14.496Z,7.39
2019-03-04T04:06:16.045Z,6.63
2019-03-04T04:11:15.529Z,7.69
2019-03-04T04:16:27.652Z,7.31
2019-03-04T04:21:28.116Z,7.13
2019-03-04T04:26:28.794Z,8.28
2019-03-04T04:31:31.438Z,10.37
2019-03-04T04:36:35.140Z,7.43
2019-03-04T04:41:32.050Z,9.01
2019-03-04T04:46:44.336Z,7.52
2019-03-04T04:51:45.840Z,8.57
2019-03-04T04:56:48.760Z,9.81
2019-03-04T05:01:56.710Z,7.80
2019-03-04T05:07:01.484Z,10.64
2019-03-04T05:12:01.123Z,7.50
2019-03-04T05:17:07.196Z,8.57
2019-03-04T05:22:13.514Z,7.88
2019-03-04T05:27:13.450Z,9.90
2019-03-04T05:32:13.585Z,6.79
2019-03-04T05:37:31.356Z,8.61
2019-03-04T05:42:29.977Z,8.11
2019-03-04T05:47:43.634Z,7.27
2019-03-04T05:52:53.038Z,8.86
2019-03-04T05:57:56.176Z,7.52
2019-03-04T06:03:13.943Z,8.02
2019-03-04T06:08:04.641Z,6.85
2019-03-04T06:13:16.615Z,7.51
2019-03-04T06:18:06.097Z,7.23
2019-03-04T06:23:12.996Z,6.33
2019-03-04T06:28:11.990Z,7.43
2019-03-04T06:33:23.427Z,5.73
2019-03-04T06:38:22.971Z,6.89
2019-03-04T06:43:31.474Z,6.24
2019-03-04T06:48:33.449Z,9.01
2019-03-04T06:53:37.802Z,10.71
2019-03-04T06:58:38.684Z,9.30
2019-03-04T07:03:42.710Z,7.21
2019-03-04T07:08:42.459Z,7.78
2019-03-04T07:13:57.155Z,7.44
2019-03-04T07:18:59.950Z,10.33
2019-03-04T07:24:02.080Z,11.11
2019-03-04T07:29:07.974Z,9.02
2019-03-04T07:34:07.218Z,9.72
2019-03-04T07:39:17.920Z,14.59
2019-03-04T07:44:18.250Z,17.93
2019-03-04T07:49:17.624Z,13.82
2019-03-04T07:54:28.035Z,11.06
2019-03-04T07:59:30.403Z,8.33
2019-03-04T08:04:32.149Z,8.36
2019-03-04T08:09:34.761Z,7.04
2019-03-04T08:14:42.217Z,10.70
2019-03-04T08:19:41.654Z,15.15
2019-03-04T08:24:42.853Z,8.76
2019-03-04T08:29:43.829Z,8.57
2019-03-04T08:34:45.184Z,8.81
2019-03-04T08:39:47.925Z,9.01
2019-03-04T08:44:47.375Z,8.64
2019-03-04T08:49:49.272Z,13.38
2019-03-04T08:54:51.258Z,10.88
2019-03-04T08:59:54.293Z,13.36
2019-03-04T09:04:56.342Z,20.34
2019-03-04T09:10:14.607Z,19.61
2019-03-04T09:15:12.355Z,19.86
2019-03-04T09:20:17.890Z,21.39
2019-03-04T09:25:29.856Z,19.47
2019-03-04T09:40:49.231Z,19.48
2019-03-04T09:45:45.043Z,25.46
2019-03-04T09:50:58.708Z,23.55
2019-03-04T09:55:48.404Z,23.96
2019-03-04T10:01:02.681Z,20.20
2019-03-04T10:05:58.548Z,20.21
2019-03-04T10:11:15.111Z,17.45
2019-03-04T10:16:18.724Z,14.75
2019-03-04T10:21:23.267Z,14.82
2019-03-04T10:26:27.347Z,19.97
2019-03-04T10:31:29.227Z,15.12
2019-03-04T10:36:20.309Z,16.73
2019-03-04T10:41:26.193Z,17.28
2019-03-04T10:46:43.576Z,17.91
2019-03-04T10:51:39.216Z,14.23
2019-03-04T10:56:43.322Z,14.01
2019-03-04T11:01:55.125Z,8.87
2019-03-04T11:06:48.271Z,9.53
2019-03-04T11:12:03.305Z,9.70
2019-03-04T11:16:54.078Z,9.70
2019-03-04T11:21:58.999Z,5.73
2019-03-04T11:27:01.090Z,9.90
2019-03-04T11:32:03.229Z,9.19
2019-03-04T11:37:16.413Z,6.53
2019-03-04T11:42:08.139Z,14.83
2019-03-04T11:47:11.959Z,9.90
2019-03-04T11:52:25.385Z,8.02
2019-03-04T11:57:19.834Z,7.67
2019-03-04T12:02:20.051Z,7.94
2019-03-04T12:17:30.885Z,6.32
2019-03-04T12:22:33.128Z,9.65
2019-03-04T12:27:33.201Z,6.26
2019-03-04T12:32:45.201Z,5.84
2019-03-04T12:42:39.716Z,5.38
2019-03-04T12:47:38.990Z,5.39
2019-03-04T12:52:39.673Z,5.81
2019-03-04T12:57:38.268Z,6.46
2019-03-04T13:03:04.624Z,6.04
2019-03-04T13:08:03.484Z,7.27
2019-03-04T13:13:06.653Z,6.01
2019-03-04T13:18:13.428Z,5.60
2019-03-04T13:23:17.713Z,5.22
2019-03-04T13:28:15.776Z,4.55
2019-03-04T13:33:28.077Z,7.53
2019-03-04T13:38:27.089Z,6.43
2019-03-04T13:43:48.799Z,4.00
2019-03-04T13:48:36.246Z,4.03
2019-03-04T13:53:51.889Z,3.11
2019-03-04T13:58:54.437Z,4.30
2019-03-04T14:04:01.244Z,5.45
2019-03-04T14:08:58.990Z,4.90
2019-03-04T14:14:17.800Z,4.77
2019-03-04T14:19:24.663Z,5.20
2019-03-04T14:24:25.146Z,5.03
2019-03-04T14:29:27.921Z,8.30
2019-03-04T14:34:27.138Z,4.64
2019-03-04T14:39:38.083Z,5.71
2019-03-04T14:44:40.517Z,6.39
2019-03-04T14:49:44.816Z,6.64
2019-03-04T14:54:49.201Z,5.24
2019-03-04T14:59:49.147Z,6.46
2019-03-04T15:05:01.489Z,6.99
2019-03-04T15:10:11.906Z,10.22
2019-03-04T15:15:29.607Z,7.37
2019-03-04T15:20:33.292Z,8.38
2019-03-04T15:25:28.609Z,6.73
2019-03-04T15:30:52.655Z,5.28
2019-03-04T15:35:37.354Z,6.43
2019-03-04T15:40:51.096Z,6.73
2019-03-04T15:45:59.660Z,6.81
2019-03-04T15:51:00.465Z,6.69
2019-03-04T15:55:57.320Z,7.13
2019-03-04T16:01:17.181Z,6.15
2019-03-04T16:06:16.235Z,6.49
2019-03-04T16:11:21.276Z,6.84
2019-03-04T16:16:19.954Z,6.54
2019-03-04T16:21:16.786Z,6.00
2019-03-04T16:26:34.458Z,5.09
2019-03-04T16:31:42.900Z,6.06
2019-03-04T16:36:37.619Z,5.49
2019-03-04T16:41:39.031Z,7.11
2019-03-04T16:46:46.197Z,5.14
2019-03-04T16:51:50.488Z,4.66
2019-03-04T16:57:03.317Z,5.94
2019-03-04T17:02:06.912Z,6.28
2019-03-04T17:07:00.963Z,6.26
2019-03-04T17:12:01.775Z,6.73
2019-03-04T17:17:09.163Z,5.09
2019-03-04T17:22:11.610Z,7.41
2019-03-04T17:27:13.275Z,6.49
2019-03-04T17:32:18.636Z,3.91
2019-03-04T17:37:25.561Z,5.30
2019-03-04T17:42:32.612Z,6.74
2019-03-04T17:47:34.314Z,5.77
2019-03-04T17:52:38.469Z,4.65
2019-03-04T17:57:39.126Z,5.97
2019-03-04T18:02:44.307Z,5.70
2019-03-04T18:07:53.050Z,7.14
2019-03-04T18:13:09.691Z,7.34
2019-03-04T18:17:59.486Z,4.84
2019-03-04T18:23:20.945Z,6.49
2019-03-04T18:28:01.200Z,4.96
2019-03-04T18:33:05.146Z,3.29
2019-03-04T18:38:08.269Z,2.63
2019-03-04T18:43:11.091Z,2.70
2019-03-04T18:48:11.566Z,2.18
2019-03-04T18:53:12.477Z,2.51
2019-03-04T18:58:14.192Z,2.25
2019-03-04T19:03:13.150Z,2.38
2019-03-04T19:08:12.211Z,3.27
2019-03-04T19:13:32.241Z,3.27
2019-03-04T19:18:35.786Z,4.52
2019-03-04T19:23:34.623Z,3.65
2019-03-04T19:28:46.421Z,2.58
2019-03-04T19:33:50.543Z,3.44
2019-03-04T19:38:52.497Z,4.26
2019-03-04T19:44:05.245Z,3.09
2019-03-04T19:48:57.320Z,2.94
2019-03-04T19:54:05.375Z,5.11
2019-03-04T19:59:07.187Z,5.21
2019-03-04T20:04:10.285Z,6.08
2019-03-04T20:09:13.248Z,7.75
2019-03-04T20:14:18.108Z,7.08
2019-03-04T20:19:22.777Z,7.18
2019-03-04T20:24:25.222Z,8.22
2019-03-04T20:29:27.643Z,5.66
2019-03-04T20:34:38.452Z,16.77
2019-03-04T20:39:39.357Z,9.57
2019-03-04T20:44:46.622Z,13.86
2019-03-04T20:49:48.433Z,7.42
2019-03-04T20:54:49.335Z,8.41
2019-03-04T20:59:52.397Z,8.73
2019-03-04T21:04:53.360Z,11.85
2019-03-04T21:09:54.199Z,13.01
2019-03-04T21:19:56.917Z,17.12
2019-03-04T21:25:08.693Z,21.38
2019-03-04T21:30:16.272Z,15.18
2019-03-04T21:35:23.018Z,10.61
2019-03-04T21:40:32.135Z,11.68
2019-03-04T21:45:42.461Z,12.72
2019-03-04T21:50:43.935Z,12.15
2019-03-04T21:55:46.141Z,10.55
2019-03-04T22:01:01.945Z,8.77
2019-03-04T22:05:51.904Z,11.05
2019-03-04T22:10:57.797Z,9.34
2019-03-04T22:16:05.421Z,10.81
2019-03-04T22:21:16.510Z,12.36
2019-03-04T22:26:20.320Z,12.21
2019-03-04T22:31:33.562Z,9.34
2019-03-04T22:36:04.717Z,8.25
2019-03-04T22:46:34.609Z,12.56
2019-03-04T22:51:39.967Z,20.09
2019-03-04T22:56:37.301Z,22.34
2019-03-04T23:01:54.436Z,19.66
2019-03-04T23:06:46.220Z,8.40
2019-03-04T23:11:51.553Z,12.09
2019-03-04T23:16:56.237Z,8.57
2019-03-04T23:21:57.237Z,10.60
2019-03-04T23:27:02.583Z,8.08
2019-03-04T23:32:13.958Z,23.37
2019-03-04T23:37:11.835Z,20.30
2019-03-04T23:42:15.977Z,10.40
2019-03-04T23:47:15.097Z,8.29
2019-03-04T23:52:26.984Z,8.96
2019-03-04T23:57:35.984Z,11.40
